createdAt,value
2022-07-25T00:02:34.002Z,21.40
2022-07-25T00:05:37.994Z,21.30
2022-07-25T00:08:39.814Z,21.40
2022-07-25T00:11:41.867Z,21.30
2022-07-25T00:14:43.493Z,21.30
2022-07-25T00:17:45.224Z,21.40
2022-07-25T00:20:47.411Z,21.30
2022-07-25T00:23:49.120Z,21.40
2022-07-25T00:26:50.700Z,21.40
2022-07-25T00:29:52.381Z,21.30
2022-07-25T00:32:53.991Z,21.30
2022-07-25T00:35:55.592Z,21.30
2022-07-25T00:38:57.249Z,21.30
2022-07-25T00:41:58.846Z,21.30
2022-07-25T00:45:00.460Z,21.30
2022-07-25T00:48:02.047Z,21.30
2022-07-25T00:51:04.356Z,21.30
2022-07-25T00:54:06.641Z,21.20
2022-07-25T00:57:08.475Z,21.20
2022-07-25T01:00:13.734Z,21.20
2022-07-25T01:03:16.088Z,21.20
2022-07-25T01:06:17.803Z,21.20
2022-07-25T01:09:20.521Z,21.10
2022-07-25T01:12:22.133Z,21.10
2022-07-25T01:15:24.913Z,21.10
2022-07-25T01:18:26.641Z,21.00
2022-07-25T01:21:28.313Z,21.00
2022-07-25T01:24:29.977Z,20.90
2022-07-25T01:27:32.123Z,20.90
2022-07-25T01:30:33.735Z,20.80
2022-07-25T01:33:35.430Z,20.70
2022-07-25T01:36:37.068Z,20.70
2022-07-25T01:39:38.665Z,20.70
2022-07-25T01:42:40.422Z,20.60
2022-07-25T01:45:42.190Z,20.40
2022-07-25T01:48:43.990Z,20.30
2022-07-25T01:51:45.698Z,20.20
2022-07-25T01:54:48.203Z,20.10
2022-07-25T01:57:50.809Z,20.10
2022-07-25T02:00:53.879Z,20.10
2022-07-25T02:03:55.501Z,20.10
2022-07-25T02:06:57.155Z,20.00
2022-07-25T02:09:58.764Z,20.00
2022-07-25T02:13:01.403Z,20.00
2022-07-25T02:16:03.134Z,19.90
2022-07-25T02:19:04.856Z,19.90
2022-07-25T02:22:06.718Z,19.90
2022-07-25T02:25:08.887Z,19.90
2022-07-25T02:28:10.667Z,19.80
2022-07-25T02:31:12.629Z,19.80
2022-07-25T02:34:14.342Z,19.80
2022-07-25T02:37:15.972Z,19.70
2022-07-25T02:40:17.614Z,19.80
2022-07-25T02:43:19.993Z,19.70
2022-07-25T02:46:21.699Z,19.70
2022-07-25T02:49:23.397Z,19.60
2022-07-25T02:52:25.032Z,19.50
2022-07-25T02:55:26.884Z,19.40
2022-07-25T02:58:28.493Z,19.40
2022-07-25T03:01:30.181Z,19.30
2022-07-25T03:04:31.946Z,19.20
2022-07-25T03:07:33.746Z,19.20
2022-07-25T03:10:36.340Z,19.10
2022-07-25T03:13:37.967Z,19.10
2022-07-25T03:16:39.632Z,19.10
2022-07-25T03:19:41.340Z,19.10
2022-07-25T03:22:42.978Z,19.00
2022-07-25T03:25:44.636Z,19.00
2022-07-25T03:28:46.246Z,18.90
2022-07-25T03:31:47.942Z,18.90
2022-07-25T03:34:49.707Z,18.90
2022-07-25T03:37:51.525Z,18.90
2022-07-25T03:40:53.134Z,18.90
2022-07-25T03:43:54.781Z,18.90
2022-07-25T03:46:56.366Z,18.90
2022-07-25T03:49:57.981Z,18.90
2022-07-25T03:52:59.646Z,18.90
2022-07-25T03:56:01.238Z,18.90
2022-07-25T03:59:03.949Z,18.90
2022-07-25T04:02:05.673Z,18.90
2022-07-25T04:05:08.738Z,18.90
2022-07-25T04:08:10.394Z,19.00
2022-07-25T04:11:12.023Z,19.00
2022-07-25T04:14:14.266Z,19.00
2022-07-25T04:17:15.919Z,19.10
2022-07-25T04:20:17.707Z,19.30
2022-07-25T04:23:19.309Z,19.40
2022-07-25T04:26:20.993Z,19.70
2022-07-25T04:29:22.577Z,20.10
2022-07-25T04:32:26.762Z,20.40
2022-07-25T04:35:28.535Z,20.80
2022-07-25T04:38:30.167Z,21.20
2022-07-25T04:41:32.111Z,21.60
2022-07-25T04:44:33.947Z,21.70
2022-07-25T04:47:35.572Z,22.00
2022-07-25T04:50:38.067Z,22.30
2022-07-25T04:53:39.696Z,22.50
2022-07-25T04:56:41.313Z,22.70
2022-07-25T04:59:44.192Z,23.00
2022-07-25T05:02:45.906Z,23.00
2022-07-25T05:05:47.554Z,23.10
2022-07-25T05:08:49.186Z,23.30
2022-07-25T05:11:55.930Z,23.30
2022-07-25T05:14:58.358Z,23.40
2022-07-25T05:18:00.052Z,23.40
2022-07-25T05:21:01.765Z,23.50
2022-07-25T05:24:04.246Z,23.60
2022-07-25T05:27:06.142Z,23.60
2022-07-25T05:30:09.920Z,23.60
2022-07-25T05:33:11.549Z,23.70
2022-07-25T05:36:13.196Z,23.80
2022-07-25T05:39:15.029Z,23.80
2022-07-25T05:42:16.628Z,23.80
2022-07-25T05:45:18.237Z,23.90
2022-07-25T05:48:19.839Z,23.90
2022-07-25T05:51:21.443Z,24.10
2022-07-25T05:54:23.118Z,24.20
2022-07-25T05:57:24.715Z,24.20
2022-07-25T06:00:26.747Z,24.40
2022-07-25T06:03:28.488Z,24.50
2022-07-25T06:06:32.608Z,24.60
2022-07-25T06:09:34.214Z,24.50
2022-07-25T06:12:36.702Z,24.70
2022-07-25T06:15:38.684Z,24.80
2022-07-25T06:18:40.305Z,24.90
2022-07-25T06:21:41.961Z,25.00
2022-07-25T06:24:43.613Z,25.20
2022-07-25T06:27:45.256Z,25.20
2022-07-25T06:30:47.339Z,25.40
2022-07-25T06:33:49.203Z,25.30
2022-07-25T06:36:50.871Z,25.50
2022-07-25T06:39:52.713Z,25.60
2022-07-25T06:42:54.602Z,25.60
2022-07-25T06:45:56.248Z,25.90
2022-07-25T06:48:57.931Z,25.90
2022-07-25T06:51:59.620Z,25.90
2022-07-25T06:55:01.765Z,26.10
2022-07-25T06:58:03.606Z,26.20
2022-07-25T07:01:05.401Z,26.50
2022-07-25T07:04:07.342Z,26.50
2022-07-25T07:07:09.315Z,26.70
2022-07-25T07:10:10.996Z,26.70
2022-07-25T07:13:15.182Z,26.80
2022-07-25T07:16:20.223Z,26.70
2022-07-25T07:19:22.421Z,26.80
2022-07-25T07:22:24.173Z,27.00
2022-07-25T07:25:28.436Z,27.20
2022-07-25T07:28:30.374Z,27.10
2022-07-25T07:31:32.216Z,27.30
2022-07-25T07:34:33.891Z,27.40
2022-07-25T07:37:41.445Z,27.30
2022-07-25T07:40:45.022Z,27.40
2022-07-25T07:43:47.004Z,27.60
2022-07-25T07:46:48.919Z,28.00
2022-07-25T07:49:51.060Z,28.00
2022-07-25T07:52:54.936Z,28.30
2022-07-25T07:55:56.583Z,28.20
2022-07-25T07:58:58.211Z,28.30
2022-07-25T08:02:00.042Z,28.40
2022-07-25T08:05:01.785Z,28.60
2022-07-25T08:08:03.968Z,28.50
2022-07-25T08:11:05.715Z,28.50
2022-07-25T08:14:07.891Z,28.70
2022-07-25T08:17:09.710Z,28.90
2022-07-25T08:20:36.926Z,29.10
2022-07-25T08:23:38.643Z,29.20
2022-07-25T08:26:40.355Z,29.40
2022-07-25T08:29:41.959Z,29.60
2022-07-25T08:32:56.222Z,29.80
2022-07-25T08:36:01.018Z,30.10
2022-07-25T08:39:03.160Z,30.10
2022-07-25T08:42:10.629Z,30.30
2022-07-25T08:45:13.880Z,30.30
2022-07-25T08:48:23.818Z,30.50
2022-07-25T08:51:25.947Z,30.60
2022-07-25T08:54:27.609Z,30.70
2022-07-25T08:57:29.240Z,30.80
2022-07-25T09:00:30.863Z,31.00
2022-07-25T09:03:33.006Z,31.10
2022-07-25T09:06:35.236Z,31.30
2022-07-25T09:09:38.898Z,31.50
2022-07-25T09:12:41.749Z,31.40
2022-07-25T09:15:49.556Z,31.50
2022-07-25T09:18:51.793Z,31.80
2022-07-25T09:21:59.791Z,31.70
2022-07-25T09:25:01.423Z,31.70
2022-07-25T09:28:15.920Z,31.90
2022-07-25T09:31:21.206Z,32.10
2022-07-25T09:34:37.713Z,32.40
2022-07-25T09:37:39.586Z,32.60
2022-07-25T09:40:42.479Z,32.80
2022-07-25T09:43:44.670Z,32.90
2022-07-25T09:46:46.400Z,33.00
2022-07-25T09:49:48.096Z,33.00
2022-07-25T09:52:52.898Z,33.10
2022-07-25T09:55:56.769Z,33.40
2022-07-25T09:58:58.723Z,33.70
2022-07-25T10:02:17.757Z,34.00
2022-07-25T10:05:48.601Z,34.40
2022-07-25T10:08:51.486Z,34.70
2022-07-25T10:12:10.589Z,34.80
2022-07-25T10:15:14.048Z,34.80
2022-07-25T10:18:17.814Z,34.50
2022-07-25T10:21:26.756Z,34.20
2022-07-25T10:24:37.514Z,34.30
2022-07-25T10:27:50.536Z,34.60
2022-07-25T10:30:58.558Z,34.70
2022-07-25T10:34:06.485Z,34.80
2022-07-25T10:37:18.358Z,34.80
2022-07-25T10:40:35.435Z,34.90
2022-07-25T10:43:39.069Z,35.10
2022-07-25T10:46:43.904Z,35.20
2022-07-25T10:50:15.236Z,35.40
2022-07-25T10:53:09.805Z,35.60
2022-07-25T10:56:22.636Z,35.90
2022-07-25T10:59:29.314Z,35.80
2022-07-25T11:02:31.179Z,35.70
2022-07-25T11:05:44.745Z,35.60
2022-07-25T11:08:46.721Z,35.70
2022-07-25T11:11:50.630Z,35.70
2022-07-25T11:15:00.473Z,35.70
2022-07-25T11:18:02.083Z,35.60
2022-07-25T11:21:08.547Z,35.60
2022-07-25T11:24:10.147Z,35.50
2022-07-25T11:27:20.943Z,35.60
2022-07-25T11:30:22.741Z,35.70
2022-07-25T11:33:24.472Z,35.70
2022-07-25T11:36:26.220Z,35.80
2022-07-25T11:39:33.067Z,35.80
2022-07-25T11:42:44.563Z,35.80
2022-07-25T11:45:56.877Z,35.80
2022-07-25T11:49:06.576Z,36.00
2022-07-25T11:52:38.269Z,36.00
2022-07-25T11:55:42.279Z,35.80
2022-07-25T11:58:49.644Z,35.30
2022-07-25T12:01:51.584Z,34.40
2022-07-25T12:04:54.952Z,33.30
2022-07-25T12:07:56.616Z,32.90
2022-07-25T12:10:58.347Z,32.90
2022-07-25T12:14:04.785Z,33.40
2022-07-25T12:17:06.398Z,33.90
2022-07-25T12:20:27.285Z,34.50
2022-07-25T12:23:28.881Z,34.80
2022-07-25T12:26:30.560Z,34.80
2022-07-25T12:29:32.201Z,34.60
2022-07-25T12:32:34.453Z,34.80
2022-07-25T12:35:39.395Z,35.10
2022-07-25T12:38:41.031Z,35.10
2022-07-25T12:41:43.055Z,35.20
2022-07-25T12:44:44.813Z,35.00
2022-07-25T12:47:47.939Z,34.70
2022-07-25T12:50:49.684Z,34.20
2022-07-25T12:53:51.314Z,33.90
2022-07-25T12:56:52.995Z,33.80
2022-07-25T12:59:54.639Z,33.90
2022-07-25T13:02:56.497Z,33.90
2022-07-25T13:05:58.531Z,34.20
2022-07-25T13:09:00.170Z,34.60
2022-07-25T13:12:01.797Z,35.00
2022-07-25T13:15:04.189Z,35.20
2022-07-25T13:18:06.073Z,35.30
2022-07-25T13:21:07.687Z,35.20
2022-07-25T13:24:10.458Z,35.50
2022-07-25T13:27:12.275Z,35.80
2022-07-25T13:30:14.485Z,35.70
2022-07-25T13:33:17.206Z,35.50
2022-07-25T13:36:19.276Z,35.40
2022-07-25T13:39:23.820Z,35.40
2022-07-25T13:42:25.526Z,35.10
2022-07-25T13:45:27.237Z,35.00
2022-07-25T13:48:30.839Z,35.00
2022-07-25T13:51:33.022Z,35.20
2022-07-25T13:54:34.706Z,35.30
2022-07-25T13:57:36.335Z,35.40
2022-07-25T14:00:37.927Z,35.70
2022-07-25T14:03:39.621Z,35.80
2022-07-25T14:06:41.745Z,35.40
2022-07-25T14:09:43.415Z,35.20
2022-07-25T14:12:45.673Z,34.80
2022-07-25T14:15:47.368Z,34.50
2022-07-25T14:18:48.987Z,34.10
2022-07-25T14:21:50.612Z,33.90
2022-07-25T14:24:52.298Z,32.50
2022-07-25T14:27:53.973Z,31.60
2022-07-25T14:30:55.785Z,31.80
2022-07-25T14:33:58.030Z,32.20
2022-07-25T14:37:00.069Z,32.20
2022-07-25T14:40:03.473Z,32.10
2022-07-25T14:43:05.127Z,32.60
2022-07-25T14:46:08.204Z,32.80
2022-07-25T14:49:14.155Z,33.20
2022-07-25T14:52:16.375Z,33.70
2022-07-25T14:55:18.681Z,33.90
2022-07-25T14:58:20.295Z,34.30
2022-07-25T15:01:25.207Z,34.70
2022-07-25T15:04:28.000Z,35.20
2022-07-25T15:07:29.628Z,35.30
2022-07-25T15:10:31.270Z,35.60
2022-07-25T15:13:33.078Z,35.60
2022-07-25T15:16:34.856Z,35.30
2022-07-25T15:19:36.605Z,35.20
2022-07-25T15:22:38.225Z,35.20
2022-07-25T15:29:01.662Z,35.40
2022-07-25T15:32:05.474Z,35.40
2022-07-25T15:35:08.288Z,34.90
2022-07-25T15:38:09.973Z,34.50
2022-07-25T15:41:12.075Z,34.20
2022-07-25T15:44:13.723Z,33.90
2022-07-25T15:47:15.595Z,33.90
2022-07-25T15:50:18.197Z,33.80
2022-07-25T15:53:20.148Z,33.90
2022-07-25T15:56:21.926Z,34.20
2022-07-25T15:59:23.581Z,34.60
2022-07-25T16:02:25.486Z,34.40
2022-07-25T16:05:27.186Z,33.90
2022-07-25T16:08:28.853Z,33.40
2022-07-25T16:11:30.636Z,33.10
2022-07-25T16:14:32.267Z,33.00
2022-07-25T16:17:36.906Z,32.80
2022-07-25T16:20:38.596Z,32.60
2022-07-25T16:23:45.004Z,32.60
2022-07-25T16:26:48.914Z,32.90
2022-07-25T16:29:50.944Z,33.00
2022-07-25T16:32:52.598Z,32.90
2022-07-25T16:35:54.262Z,32.90
2022-07-25T16:38:55.919Z,32.90
2022-07-25T16:41:57.555Z,32.70
2022-07-25T16:44:59.237Z,32.40
2022-07-25T16:48:00.901Z,32.20
2022-07-25T16:51:02.512Z,32.00
2022-07-25T16:54:04.443Z,31.90
2022-07-25T16:57:06.351Z,31.90
2022-07-25T17:00:09.287Z,31.80
2022-07-25T17:03:10.889Z,31.70
2022-07-25T17:06:12.539Z,31.70
2022-07-25T17:09:14.189Z,31.50
2022-07-25T17:12:17.298Z,31.40
2022-07-25T17:15:20.025Z,31.40
2022-07-25T17:18:21.760Z,31.30
2022-07-25T17:21:23.364Z,31.20
2022-07-25T17:24:24.978Z,31.10
2022-07-25T17:27:26.709Z,30.90
2022-07-25T17:30:28.352Z,30.80
2022-07-25T17:33:30.021Z,30.70
2022-07-25T17:36:31.712Z,30.60
2022-07-25T17:39:34.065Z,30.30
2022-07-25T17:42:35.646Z,30.20
2022-07-25T17:45:37.293Z,30.10
2022-07-25T17:48:40.609Z,30.10
2022-07-25T17:51:42.242Z,30.40
2022-07-25T17:54:43.923Z,30.40
2022-07-25T17:57:46.109Z,30.50
2022-07-25T18:00:47.785Z,30.70
2022-07-25T18:03:50.494Z,30.90
2022-07-25T18:06:52.188Z,30.40
2022-07-25T18:09:53.796Z,30.00
2022-07-25T18:12:55.501Z,29.80
2022-07-25T18:15:57.228Z,29.40
2022-07-25T18:18:58.966Z,29.30
2022-07-25T18:22:00.556Z,29.40
2022-07-25T18:25:02.191Z,29.20
2022-07-25T18:28:04.148Z,28.90
2022-07-25T18:31:06.005Z,28.60
2022-07-25T18:34:08.179Z,28.40
2022-07-25T18:37:10.221Z,28.30
2022-07-25T18:40:12.596Z,28.00
2022-07-25T18:43:14.438Z,27.90
2022-07-25T18:46:16.698Z,27.70
2022-07-25T18:49:18.481Z,27.50
2022-07-25T18:52:20.955Z,27.40
2022-07-25T18:55:22.645Z,27.30
2022-07-25T18:58:24.722Z,27.20
2022-07-25T19:01:26.366Z,27.10
2022-07-25T19:04:29.182Z,27.00
2022-07-25T19:07:31.297Z,26.90
2022-07-25T19:10:33.056Z,26.80
2022-07-25T19:13:53.118Z,26.70
2022-07-25T19:16:55.090Z,26.50
2022-07-25T19:19:56.782Z,26.40
2022-07-25T19:22:58.387Z,26.40
2022-07-25T19:26:01.907Z,26.20
2022-07-25T19:29:06.853Z,26.10
2022-07-25T19:32:08.621Z,26.00
2022-07-25T19:35:10.792Z,25.90
2022-07-25T19:38:12.446Z,25.80
2022-07-25T19:41:14.468Z,25.70
2022-07-25T19:44:16.120Z,25.60
2022-07-25T19:47:17.861Z,25.50
2022-07-25T19:50:19.754Z,25.60
2022-07-25T19:53:26.735Z,25.50
2022-07-25T19:56:30.849Z,25.50
2022-07-25T19:59:32.579Z,25.40
2022-07-25T20:02:34.203Z,25.40
2022-07-25T20:05:36.110Z,25.30
2022-07-25T20:08:39.261Z,25.20
2022-07-25T20:11:40.995Z,25.20
2022-07-25T20:14:42.672Z,25.10
2022-07-25T20:17:44.395Z,25.00
2022-07-25T20:20:46.188Z,25.00
2022-07-25T20:23:48.342Z,24.90
2022-07-25T20:26:50.091Z,24.90
2022-07-25T20:29:51.760Z,24.80
2022-07-25T20:32:53.556Z,24.70
2022-07-25T20:35:55.718Z,24.70
2022-07-25T20:38:57.344Z,24.60
2022-07-25T20:42:01.014Z,24.60
2022-07-25T20:45:03.045Z,24.60
2022-07-25T20:48:05.688Z,24.60
2022-07-25T20:51:07.388Z,24.50
2022-07-25T20:54:09.330Z,24.50
2022-07-25T20:57:11.642Z,24.40
2022-07-25T21:00:13.921Z,24.30
2022-07-25T21:03:15.519Z,24.30
2022-07-25T21:06:17.125Z,24.20
2022-07-25T21:09:18.776Z,24.20
2022-07-25T21:12:20.953Z,24.20
2022-07-25T21:15:23.685Z,24.10
2022-07-25T21:18:25.308Z,24.10
2022-07-25T21:21:27.056Z,24.10
2022-07-25T21:24:28.698Z,24.10
2022-07-25T21:27:30.448Z,24.00
2022-07-25T21:30:32.138Z,23.90
2022-07-25T21:33:33.750Z,23.90
2022-07-25T21:36:35.368Z,23.80
2022-07-25T21:39:39.741Z,23.80
2022-07-25T21:42:41.713Z,23.70
2022-07-25T21:45:43.494Z,23.60
2022-07-25T21:49:03.948Z,23.60
2022-07-25T21:52:06.088Z,23.60
2022-07-25T21:55:08.458Z,23.50
2022-07-25T21:58:10.082Z,23.50
2022-07-25T22:01:12.073Z,23.50
2022-07-25T22:04:13.803Z,23.40
2022-07-25T22:11:43.123Z,23.40
2022-07-25T22:14:48.018Z,23.30
2022-07-25T22:17:50.150Z,23.30
2022-07-25T22:20:51.934Z,23.30
2022-07-25T22:23:53.533Z,23.20
2022-07-25T22:26:55.198Z,23.20
2022-07-25T22:29:57.391Z,23.20
2022-07-25T22:32:59.003Z,23.10
2022-07-25T22:36:01.331Z,23.10
2022-07-25T22:39:03.869Z,23.10
2022-07-25T22:42:05.848Z,23.00
2022-07-25T22:45:08.303Z,23.00
2022-07-25T22:48:09.976Z,23.00
2022-07-25T22:51:11.871Z,22.90
2022-07-25T22:54:13.461Z,22.90
2022-07-25T22:57:15.074Z,22.90
2022-07-25T23:00:16.940Z,22.80
2022-07-25T23:03:18.643Z,22.80
2022-07-25T23:06:21.804Z,22.70
2022-07-25T23:09:23.496Z,22.60
2022-07-25T23:12:25.113Z,22.60
2022-07-25T23:15:26.868Z,22.50
2022-07-25T23:18:48.443Z,22.50
2022-07-25T23:21:50.036Z,22.50
2022-07-25T23:24:51.654Z,22.50
2022-07-25T23:27:53.266Z,22.40
2022-07-25T23:30:55.022Z,22.40
2022-07-25T23:33:56.627Z,22.30
2022-07-25T23:36:58.243Z,22.30
2022-07-25T23:39:59.809Z,22.20
2022-07-25T23:43:01.387Z,22.10
2022-07-25T23:46:05.295Z,22.00
2022-07-25T23:49:10.465Z,22.00
2022-07-25T23:52:12.421Z,21.90
2022-07-25T23:55:14.056Z,21.80
2022-07-25T23:58:15.892Z,21.80
